PWSweather.com
Personal Weather Stations
Station Observations
TMASSANO
Herbertsville, Brick, NJ 08724

HerbertsvilleBrick, NJ 08724

Lat: 40.098, Lon: -74.096

Elevation: 16

Station Type: WS 2800

High Low Average
Temperature 66.6°F19.2°C 46.8°F8.2°C 57.9°F14.4°C
Dew Point 54.7°F12.6°C 42.0°F5.6°C 49.2°F9.6°C
Winds 3.4 mph 5.5 kmh Calm Calm 1.0 mph SE1.6 kmh SE
Wind Gusts 3.4 mph5.5 kmh -- 1.0 mph1.6 kmh
Humidity 86% 63% 74%
Pressure 30.20 in1022.7 mb 30.05 in1017.6 mb -
Precipitation 0.00 in0.0 mm - -
Hour Temp Dew Point Humidity Winds Wind Gusts Pressure Precip Precip Rate Daily Precip Total
12:00 AM 52.0°F11.1°C 45.4°F7.4°C 78% Calm Calm -- 30.20 in1022.7 mb 0.00 in0.0 mm 0.00 in/hr0.0 mm/hr 0.00 in0.0 mm
12:30 AM 51.5°F10.8°C 45.5°F7.5°C 80% 0.4 mph WSW0.6 kmh WSW 0.4 mph0.6 kmh 30.19 in1022.4 mb 0.00 in0.0 mm 0.00 in/hr0.0 mm/hr 0.00 in0.0 mm
01:00 AM 50.8°F10.4°C 44.8°F7.1°C 80% Calm Calm -- 30.18 in1022.0 mb 0.00 in0.0 mm 0.00 in/hr0.0 mm/hr 0.00 in0.0 mm
01:30 AM 50.2°F10.1°C 44.6°F7.0°C 81% Calm Calm -- 30.18 in1022.0 mb 0.00 in0.0 mm 0.00 in/hr0.0 mm/hr 0.00 in0.0 mm
02:00 AM 49.7°F9.8°C 44.4°F6.9°C 82% Calm Calm -- 30.17 in1021.7 mb 0.00 in0.0 mm 0.00 in/hr0.0 mm/hr 0.00 in0.0 mm
02:30 AM 49.0°F9.4°C 43.7°F6.5°C 82% Calm Calm -- 30.16 in1021.3 mb 0.00 in0.0 mm 0.00 in/hr0.0 mm/hr 0.00 in0.0 mm
03:00 AM 48.4°F9.1°C 43.5°F6.4°C 83% Calm Calm -- 30.16 in1021.3 mb 0.00 in0.0 mm 0.00 in/hr0.0 mm/hr 0.00 in0.0 mm
03:30 AM 48.2°F9.0°C 42.9°F6.1°C 82% Calm Calm -- 30.15 in1021.0 mb 0.00 in0.0 mm 0.00 in/hr0.0 mm/hr 0.00 in0.0 mm
04:00 AM 47.7°F8.7°C 42.8°F6.0°C 83% Calm Calm -- 30.15 in1021.0 mb 0.00 in0.0 mm 0.00 in/hr0.0 mm/hr 0.00 in0.0 mm
04:30 AM 47.2°F8.4°C 42.3°F5.7°C 83% Calm Calm -- 30.15 in1021.0 mb 0.00 in0.0 mm 0.00 in/hr0.0 mm/hr 0.00 in0.0 mm
05:00 AM 46.8°F8.2°C 42.0°F5.6°C 83% Calm Calm -- 30.15 in1021.0 mb 0.00 in0.0 mm 0.00 in/hr0.0 mm/hr 0.00 in0.0 mm
05:30 AM 46.8°F8.2°C 42.2°F5.7°C 84% 0.2 mph SE0.3 kmh SE 0.2 mph0.3 kmh 30.16 in1021.3 mb 0.00 in0.0 mm 0.00 in/hr0.0 mm/hr 0.00 in0.0 mm
06:00 AM 47.9°F8.8°C 43.3°F6.3°C 84% Calm Calm -- 30.16 in1021.3 mb 0.00 in0.0 mm 0.00 in/hr0.0 mm/hr 0.00 in0.0 mm
06:30 AM 50.0°F10.0°C 45.9°F7.7°C 86% Calm Calm -- 30.17 in1021.7 mb 0.00 in0.0 mm 0.00 in/hr0.0 mm/hr 0.00 in0.0 mm
07:00 AM 52.9°F11.6°C 48.8°F9.3°C 86% 0.7 mph NNW1.1 kmh NNW 0.7 mph1.1 kmh 30.17 in1021.7 mb 0.00 in0.0 mm 0.00 in/hr0.0 mm/hr 0.00 in0.0 mm
07:30 AM 55.6°F13.1°C 50.5°F10.3°C 83% Calm Calm -- 30.17 in1021.7 mb 0.00 in0.0 mm 0.00 in/hr0.0 mm/hr 0.00 in0.0 mm
08:00 AM 58.7°F14.8°C 52.6°F11.4°C 80% 0.7 mph SSW1.1 kmh SSW 0.7 mph1.1 kmh 30.17 in1021.7 mb 0.00 in0.0 mm 0.00 in/hr0.0 mm/hr 0.00 in0.0 mm
08:30 AM 60.5°F15.8°C 53.3°F11.8°C 77% 0.4 mph E0.6 kmh E 0.4 mph0.6 kmh 30.18 in1022.0 mb 0.00 in0.0 mm 0.00 in/hr0.0 mm/hr 0.00 in0.0 mm
09:00 AM 63.5°F17.5°C 54.7°F12.6°C 73% 1.6 mph ESE2.6 kmh ESE 1.6 mph2.6 kmh 30.18 in1022.0 mb 0.00 in0.0 mm 0.00 in/hr0.0 mm/hr 0.00 in0.0 mm
09:30 AM 65.2°F18.4°C 54.7°F12.6°C 69% 1.3 mph ESE2.1 kmh ESE 1.3 mph2.1 kmh 30.18 in1022.0 mb 0.00 in0.0 mm 0.00 in/hr0.0 mm/hr 0.00 in0.0 mm
10:00 AM 66.1°F18.9°C 54.7°F12.6°C 67% 0.4 mph ESE0.6 kmh ESE 0.4 mph0.6 kmh 30.19 in1022.4 mb 0.00 in0.0 mm 0.00 in/hr0.0 mm/hr 0.00 in0.0 mm
10:30 AM 66.4°F19.1°C 54.3°F12.4°C 65% 2.2 mph SE3.5 kmh SE 2.2 mph3.5 kmh 30.18 in1022.0 mb 0.00 in0.0 mm 0.00 in/hr0.0 mm/hr 0.00 in0.0 mm
11:00 AM 66.6°F19.2°C 54.5°F12.5°C 65% 0.4 mph ENE0.6 kmh ENE 0.4 mph0.6 kmh 30.17 in1021.7 mb 0.00 in0.0 mm 0.00 in/hr0.0 mm/hr 0.00 in0.0 mm
11:30 AM 65.3°F18.5°C 53.3°F11.8°C 65% 2.0 mph ESE3.2 kmh ESE 2.0 mph3.2 kmh 30.16 in1021.3 mb 0.00 in0.0 mm 0.00 in/hr0.0 mm/hr 0.00 in0.0 mm
12:00 PM 65.5°F18.6°C 53.4°F11.9°C 65% 1.6 mph SE2.6 kmh SE 1.6 mph2.6 kmh 30.15 in1021.0 mb 0.00 in0.0 mm 0.00 in/hr0.0 mm/hr 0.00 in0.0 mm
12:30 PM 65.7°F18.7°C 53.2°F11.8°C 64% 2.5 mph SE4.0 kmh SE 2.5 mph4.0 kmh 30.15 in1021.0 mb 0.00 in0.0 mm 0.00 in/hr0.0 mm/hr 0.00 in0.0 mm
01:00 PM 64.4°F18.0°C 52.8°F11.6°C 66% 2.0 mph E3.2 kmh E 2.0 mph3.2 kmh 30.15 in1021.0 mb 0.00 in0.0 mm 0.00 in/hr0.0 mm/hr 0.00 in0.0 mm
01:30 PM 64.3°F17.9°C 52.7°F11.5°C 66% 1.6 mph ESE2.6 kmh ESE 1.6 mph2.6 kmh 30.14 in1020.7 mb 0.00 in0.0 mm 0.00 in/hr0.0 mm/hr 0.00 in0.0 mm
02:00 PM 64.4°F18.0°C 52.4°F11.3°C 65% 3.4 mph ESE5.5 kmh ESE 3.4 mph5.5 kmh 30.13 in1020.3 mb 0.00 in0.0 mm 0.00 in/hr0.0 mm/hr 0.00 in0.0 mm
02:30 PM 63.7°F17.6°C 52.1°F11.2°C 66% 1.1 mph ENE1.8 kmh ENE 1.1 mph1.8 kmh 30.12 in1020.0 mb 0.00 in0.0 mm 0.00 in/hr0.0 mm/hr 0.00 in0.0 mm
03:00 PM 63.0°F17.2°C 51.4°F10.8°C 66% 2.5 mph ENE4.0 kmh ENE 2.5 mph4.0 kmh 30.10 in1019.3 mb 0.00 in0.0 mm 0.00 in/hr0.0 mm/hr 0.00 in0.0 mm
03:30 PM 65.0°F18.3°C 52.5°F11.4°C 64% 2.2 mph SE3.5 kmh SE 2.2 mph3.5 kmh 30.09 in1019.0 mb 0.00 in0.0 mm 0.00 in/hr0.0 mm/hr 0.00 in0.0 mm
04:00 PM 64.6°F18.1°C 51.7°F10.9°C 63% 1.3 mph SE2.1 kmh SE 1.3 mph2.1 kmh 30.08 in1018.6 mb 0.00 in0.0 mm 0.00 in/hr0.0 mm/hr 0.00 in0.0 mm
04:30 PM 64.1°F17.8°C 51.6°F10.9°C 64% 1.1 mph ESE1.8 kmh ESE 1.1 mph1.8 kmh 30.08 in1018.6 mb 0.00 in0.0 mm 0.00 in/hr0.0 mm/hr 0.00 in0.0 mm
05:00 PM 62.6°F17.0°C 50.7°F10.4°C 65% 1.1 mph NNE1.8 kmh NNE 1.1 mph1.8 kmh 30.07 in1018.3 mb 0.00 in0.0 mm 0.00 in/hr0.0 mm/hr 0.00 in0.0 mm
05:30 PM 61.6°F16.4°C 50.5°F10.3°C 67% 2.0 mph ENE3.2 kmh ENE 2.0 mph3.2 kmh 30.07 in1018.3 mb 0.00 in0.0 mm 0.00 in/hr0.0 mm/hr 0.00 in0.0 mm
06:00 PM 62.5°F16.9°C 51.0°F10.6°C 66% 1.6 mph ESE2.6 kmh ESE 1.6 mph2.6 kmh 30.06 in1017.9 mb 0.00 in0.0 mm 0.00 in/hr0.0 mm/hr 0.00 in0.0 mm
06:30 PM 60.3°F15.7°C 49.3°F9.6°C 67% 1.6 mph SSE2.6 kmh SSE 1.6 mph2.6 kmh 30.05 in1017.6 mb 0.00 in0.0 mm 0.00 in/hr0.0 mm/hr 0.00 in0.0 mm
07:00 PM 59.4°F15.2°C 49.7°F9.8°C 70% 0.4 mph E0.6 kmh E 0.4 mph0.6 kmh 30.04 in1017.3 mb 0.00 in0.0 mm 0.00 in/hr0.0 mm/hr 0.00 in0.0 mm
07:30 PM 58.9°F14.9°C 49.9°F9.9°C 72% 0.7 mph ESE1.1 kmh ESE 0.7 mph1.1 kmh 30.04 in1017.3 mb 0.00 in0.0 mm 0.00 in/hr0.0 mm/hr 0.00 in0.0 mm
08:00 PM 58.7°F14.8°C 50.4°F10.2°C 74% 0.7 mph SE1.1 kmh SE 0.7 mph1.1 kmh 30.04 in1017.3 mb 0.00 in0.0 mm 0.00 in/hr0.0 mm/hr 0.00 in0.0 mm
08:30 PM 58.7°F14.8°C 51.1°F10.6°C 76% 0.7 mph E1.1 kmh E 0.7 mph1.1 kmh 30.04 in1017.3 mb 0.00 in0.0 mm 0.00 in/hr0.0 mm/hr 0.00 in0.0 mm
09:00 PM 58.7°F14.8°C 51.8°F11.0°C 78% 0.4 mph E0.6 kmh E 0.4 mph0.6 kmh 30.04 in1017.3 mb 0.00 in0.0 mm 0.00 in/hr0.0 mm/hr 0.00 in0.0 mm
09:30 PM 58.5°F14.7°C 52.0°F11.1°C 79% 0.9 mph SE1.4 kmh SE 0.9 mph1.4 kmh 30.02 in1016.6 mb 0.00 in0.0 mm 0.00 in/hr0.0 mm/hr 0.00 in0.0 mm
10:00 PM 58.3°F14.6°C 52.6°F11.4°C 81% 0.4 mph SE0.6 kmh SE 0.4 mph0.6 kmh 30.02 in1016.6 mb 0.00 in0.0 mm 0.00 in/hr0.0 mm/hr 0.00 in0.0 mm
10:30 PM 58.1°F14.5°C 52.7°F11.5°C 82% 0.7 mph SSE1.1 kmh SSE 0.7 mph1.1 kmh 30.02 in1016.6 mb 0.00 in0.0 mm 0.00 in/hr0.0 mm/hr 0.00 in0.0 mm
11:00 PM 57.8°F14.3°C 52.7°F11.5°C 83% 1.6 mph SE2.6 kmh SE 1.6 mph2.6 kmh 30.01 in1016.3 mb 0.00 in0.0 mm 0.00 in/hr0.0 mm/hr 0.00 in0.0 mm
11:30 PM 57.6°F14.2°C 53.1°F11.7°C 85% Calm Calm -- 30.01 in1016.3 mb 0.00 in0.0 mm 0.00 in/hr0.0 mm/hr 0.00 in0.0 mm